Ocheyedan, Iowa
Current Conditions -  °F | °C
As of 6:35 PM on Thursday 18 Dec 2014 (Local Time) from KOTG Reporting Station
Overcast Overcast  
Wind Chill: 18°   Ceiling: 2700
Heat Index: 25°   Visibility: 10mi
Dew Point: 21°   Wind: 6mph
Humidity: 86%   Direction: 160°SSE
Pressure: 30.19"   Gusts: NA
Location:  43.42°N, 95.53°W
Report Text: KOTG 190035Z AUTO 16005KT 10SM OVC027 M04/M06 A3019 RMK AO1
Loading
Personal Weather Stations






























Interactive Weather Map New forecast layout! Learn more

10-Day Weather Forecast

Advertisements
Track Severe Weather on mobile